createdAt,value
2022-10-12T00:03:54.164Z,47.97
2022-10-12T00:07:57.167Z,51.35
2022-10-12T00:12:34.786Z,57.80
2022-10-12T00:16:39.488Z,48.03
2022-10-12T00:20:42.503Z,57.13
2022-10-12T00:24:45.488Z,49.50
2022-10-12T00:29:07.163Z,51.08
2022-10-12T00:33:11.606Z,46.90
2022-10-12T00:37:14.626Z,50.33
2022-10-12T00:41:51.906Z,44.35
2022-10-12T00:45:55.129Z,53.33
2022-10-12T00:50:03.956Z,48.22
2022-10-12T00:54:10.567Z,61.72
2022-10-12T00:58:16.562Z,48.28
2022-10-12T01:02:21.074Z,50.33
2022-10-12T01:06:56.850Z,48.83
2022-10-12T01:10:59.938Z,49.90
2022-10-12T01:15:03.745Z,45.78
2022-10-12T01:19:16.976Z,43.17
2022-10-12T01:23:45.239Z,53.85
2022-10-12T01:27:50.243Z,55.05
2022-10-12T01:32:00.308Z,51.22
2022-10-12T01:36:11.119Z,51.10
2022-10-12T01:40:17.565Z,48.72
2022-10-12T01:44:24.606Z,52.97
2022-10-12T01:49:01.135Z,45.42
2022-10-12T01:53:18.383Z,43.88
2022-10-12T01:57:32.637Z,39.45
2022-10-12T02:01:59.822Z,49.17
2022-10-12T02:06:07.227Z,59.80
2022-10-12T02:10:25.587Z,49.45
2022-10-12T02:14:55.215Z,47.80
2022-10-12T02:19:01.073Z,56.25
2022-10-12T02:23:04.983Z,61.65
2022-10-12T02:27:12.497Z,52.00
2022-10-12T02:31:26.145Z,52.33
2022-10-12T02:35:54.110Z,48.80
2022-10-12T02:40:04.224Z,51.28
2022-10-12T02:44:13.290Z,53.50
2022-10-12T02:48:21.747Z,53.92
2022-10-12T02:52:25.652Z,51.28
2022-10-12T02:56:28.649Z,48.83
2022-10-12T03:00:35.194Z,55.65
2022-10-12T03:05:09.027Z,48.40
2022-10-12T03:09:12.080Z,52.42
2022-10-12T03:13:48.602Z,48.88
2022-10-12T03:17:53.106Z,49.95
2022-10-12T03:21:56.115Z,46.88
2022-10-12T03:26:33.214Z,58.13
2022-10-12T03:30:36.342Z,39.58
2022-10-12T03:35:12.818Z,49.38
2022-10-12T03:39:17.532Z,41.67
2022-10-12T03:43:51.285Z,45.17
2022-10-12T03:47:54.289Z,55.58
2022-10-12T03:52:30.954Z,56.80
2022-10-12T03:57:09.297Z,45.80
2022-10-12T04:01:42.957Z,45.60
2022-10-12T04:05:46.055Z,44.45
2022-10-12T04:09:49.118Z,47.10
2022-10-12T04:13:53.542Z,56.75
2022-10-12T04:18:27.502Z,52.90
2022-10-12T04:23:04.125Z,50.38
2022-10-12T04:27:07.413Z,48.03
2022-10-12T04:31:11.855Z,57.40
2022-10-12T04:35:14.916Z,51.53
2022-10-12T04:39:51.463Z,49.67
2022-10-12T04:43:54.774Z,51.60
2022-10-12T04:48:29.956Z,57.05
2022-10-12T04:52:55.430Z,52.35
2022-10-12T04:56:58.429Z,65.22
2022-10-12T05:01:35.138Z,52.58
2022-10-12T05:05:39.699Z,55.88
2022-10-12T05:09:42.877Z,53.72
2022-10-12T05:13:45.932Z,53.47
2022-10-12T05:17:49.019Z,59.40
2022-10-12T05:22:26.427Z,52.72
2022-10-12T05:26:31.143Z,62.85
2022-10-12T05:30:34.557Z,54.40
2022-10-12T05:34:37.519Z,55.83
2022-10-12T05:38:40.513Z,56.88
2022-10-12T05:42:45.664Z,55.40
2022-10-12T05:47:19.273Z,56.58
2022-10-12T05:51:26.571Z,49.78
2022-10-12T05:56:00.036Z,54.92
2022-10-12T06:00:06.455Z,52.97
2022-10-12T06:04:09.555Z,58.75
2022-10-12T06:08:13.216Z,50.63
2022-10-12T06:12:49.918Z,50.25
2022-10-12T06:16:54.636Z,51.35
2022-10-12T06:21:28.364Z,54.28
2022-10-12T06:25:20.758Z,52.35
2022-10-12T06:29:25.025Z,50.58
2022-10-12T06:33:47.826Z,43.15
2022-10-12T06:38:22.032Z,45.55
2022-10-12T06:43:02.709Z,47.28
2022-10-12T06:47:06.235Z,45.38
2022-10-12T06:51:10.633Z,44.35
2022-10-12T06:55:44.849Z,44.05
2022-10-12T06:59:47.910Z,43.65
2022-10-12T07:03:50.926Z,55.03
2022-10-12T07:08:29.165Z,46.40
2022-10-12T07:12:32.266Z,43.47
2022-10-12T07:16:35.243Z,41.05
2022-10-12T07:21:11.917Z,41.17
2022-10-12T07:25:16.474Z,43.60
2022-10-12T07:29:19.472Z,38.40
2022-10-12T07:33:44.065Z,29.77
2022-10-12T07:37:49.930Z,39.97
2022-10-12T07:41:55.027Z,31.67
2022-10-12T07:46:28.849Z,33.22
2022-10-12T07:50:31.870Z,31.77
2022-10-12T07:55:11.465Z,40.22
2022-10-12T07:59:47.735Z,32.67
2022-10-12T08:03:51.002Z,30.85
2022-10-12T08:08:28.187Z,32.22
2022-10-12T08:13:05.287Z,28.05
2022-10-12T08:17:09.945Z,25.27
2022-10-12T08:21:43.819Z,26.00
2022-10-12T08:25:53.388Z,36.33
2022-10-12T08:30:26.956Z,33.42
2022-10-12T08:35:05.548Z,29.67
2022-10-12T08:39:08.857Z,34.30
2022-10-12T08:43:20.589Z,28.63
2022-10-12T08:47:51.560Z,36.13
2022-10-12T08:51:57.915Z,26.92
2022-10-12T08:56:01.586Z,29.35
2022-10-12T09:00:35.887Z,28.90
2022-10-12T09:05:08.966Z,28.77
2022-10-12T09:09:28.443Z,25.55
2022-10-12T09:13:43.694Z,27.23
2022-10-12T09:18:19.633Z,29.90
2022-10-12T09:22:46.608Z,23.90
2022-10-12T09:26:55.075Z,31.08
2022-10-12T09:31:08.628Z,23.40
2022-10-12T09:35:50.354Z,23.60
2022-10-12T09:39:53.927Z,22.17
2022-10-12T09:44:32.614Z,21.35
2022-10-12T09:48:35.588Z,16.50
2022-10-12T09:53:24.357Z,20.92
2022-10-12T09:57:31.588Z,22.92
2022-10-12T10:02:14.529Z,20.45
2022-10-12T10:06:43.790Z,22.90
2022-10-12T10:10:50.645Z,14.45
2022-10-12T10:15:29.188Z,15.55
2022-10-12T10:19:33.930Z,16.50
2022-10-12T10:24:09.526Z,14.95
2022-10-12T10:28:22.450Z,22.23
2022-10-12T10:32:29.029Z,18.92
2022-10-12T10:36:45.565Z,20.52
2022-10-12T10:41:18.141Z,21.25
2022-10-12T10:45:53.681Z,20.63
2022-10-12T10:49:59.438Z,20.65
2022-10-12T10:54:15.202Z,20.42
2022-10-12T10:58:38.799Z,18.58
2022-10-12T11:03:14.322Z,16.02
2022-10-12T11:07:48.401Z,19.90
2022-10-12T11:12:14.574Z,17.63
2022-10-12T11:16:30.598Z,17.17
2022-10-12T11:20:44.786Z,19.00
2022-10-12T11:25:14.322Z,20.35
2022-10-12T11:29:19.463Z,19.27
2022-10-12T11:33:26.480Z,21.88
2022-10-12T11:38:01.781Z,13.23
2022-10-12T11:42:21.264Z,18.70
2022-10-12T11:46:44.119Z,20.13
2022-10-12T11:50:49.719Z,17.10
2022-10-12T11:55:31.182Z,14.77
2022-10-12T12:00:06.568Z,20.98
2022-10-12T12:04:48.248Z,17.77
2022-10-12T12:08:58.347Z,17.58
2022-10-12T12:13:32.944Z,17.92
2022-10-12T12:18:12.357Z,18.75
2022-10-12T12:22:34.334Z,18.15
2022-10-12T12:26:55.780Z,13.10
2022-10-12T12:31:01.395Z,16.10
2022-10-12T12:35:05.102Z,15.80
2022-10-12T12:39:41.435Z,14.80
2022-10-12T12:44:30.031Z,21.08
2022-10-12T12:48:58.815Z,22.67
2022-10-12T12:53:32.199Z,17.27
2022-10-12T12:57:48.465Z,15.65
2022-10-12T13:02:20.465Z,17.30
2022-10-12T13:07:09.031Z,13.73
2022-10-12T13:11:45.823Z,10.73
2022-10-12T13:16:00.924Z,9.98
2022-10-12T13:20:27.870Z,15.68
2022-10-12T13:24:35.608Z,13.32
2022-10-12T13:29:08.784Z,14.35
2022-10-12T13:34:06.607Z,15.35
2022-10-12T13:38:21.823Z,13.02
2022-10-12T13:42:46.560Z,17.65
2022-10-12T13:47:24.767Z,14.35
2022-10-12T13:52:00.490Z,17.27
2022-10-12T13:56:33.740Z,15.20
2022-10-12T14:00:38.392Z,11.05
2022-10-12T14:05:18.096Z,17.15
2022-10-12T14:09:51.027Z,15.55
2022-10-12T14:14:31.323Z,14.85
2022-10-12T14:19:17.091Z,14.57
2022-10-12T14:23:43.358Z,18.15
2022-10-12T14:28:22.602Z,12.10
2022-10-12T14:32:52.330Z,14.65
2022-10-12T14:37:26.483Z,11.45
2022-10-12T14:42:03.590Z,11.60
2022-10-12T14:46:37.491Z,15.77
2022-10-12T14:51:18.260Z,15.73
2022-10-12T14:55:24.199Z,14.15
2022-10-12T14:59:28.745Z,13.98
2022-10-12T15:04:02.178Z,13.18
2022-10-12T15:08:09.001Z,14.40
2022-10-12T15:12:39.785Z,11.27
2022-10-12T15:17:16.832Z,9.52
2022-10-12T15:21:21.603Z,11.70
2022-10-12T15:25:27.550Z,11.23
2022-10-12T15:30:01.587Z,17.08
2022-10-12T15:34:59.536Z,11.45
2022-10-12T15:39:38.240Z,14.05
2022-10-12T15:43:51.881Z,12.02
2022-10-12T15:47:57.505Z,8.38
2022-10-12T15:52:31.292Z,14.25
2022-10-12T15:56:41.749Z,11.88
2022-10-12T16:01:13.396Z,16.77
2022-10-12T16:05:47.374Z,11.73
2022-10-12T16:09:50.458Z,8.68
2022-10-12T16:13:56.943Z,14.40
2022-10-12T16:18:27.873Z,15.05
2022-10-12T16:23:06.139Z,14.38
2022-10-12T16:27:40.472Z,8.45
2022-10-12T16:32:17.209Z,17.42
2022-10-12T16:36:55.706Z,15.23
2022-10-12T16:41:31.844Z,15.57
2022-10-12T16:46:04.744Z,17.02
2022-10-12T16:50:08.217Z,19.92
2022-10-12T16:54:46.870Z,13.13
2022-10-12T16:58:50.086Z,22.77
2022-10-12T17:03:27.675Z,19.73
2022-10-12T17:07:31.146Z,14.23
2022-10-12T17:11:37.416Z,16.50
2022-10-12T17:15:42.374Z,13.13
2022-10-12T17:20:16.186Z,17.10
2022-10-12T17:24:53.116Z,20.75
2022-10-12T17:29:32.466Z,21.98
2022-10-12T17:34:07.297Z,22.52
2022-10-12T17:38:41.218Z,21.30
2022-10-12T17:43:18.265Z,24.63
2022-10-12T17:47:56.924Z,22.00
2022-10-12T17:52:33.825Z,31.80
2022-10-12T17:57:10.751Z,59.50
2022-10-12T18:01:47.731Z,45.30
2022-10-12T18:06:26.140Z,30.13
2022-10-12T18:11:00.398Z,38.42
2022-10-12T18:15:42.134Z,40.10
2022-10-12T18:20:13.375Z,47.15
2022-10-12T18:24:51.550Z,31.30
2022-10-12T18:29:25.793Z,41.15
2022-10-12T18:34:02.604Z,40.00
2022-10-12T18:38:39.476Z,46.45
2022-10-12T18:42:44.013Z,49.55
2022-10-12T18:47:24.274Z,61.92
2022-10-12T18:51:58.349Z,66.00
2022-10-12T18:56:04.126Z,71.60
2022-10-12T19:00:11.109Z,76.43
2022-10-12T19:04:44.643Z,81.70
2022-10-12T19:09:21.437Z,71.75
2022-10-12T19:13:30.635Z,86.40
2022-10-12T19:18:08.995Z,83.88
2022-10-12T19:22:49.756Z,79.68
2022-10-12T19:26:52.835Z,72.53
2022-10-12T19:30:55.957Z,80.03
2022-10-12T19:35:36.854Z,71.85
2022-10-12T19:39:44.736Z,87.20
2022-10-12T19:44:15.420Z,94.95
2022-10-12T19:48:53.228Z,95.20
2022-10-12T19:53:28.693Z,91.82
2022-10-12T19:58:02.613Z,79.72
2022-10-12T20:02:41.373Z,73.20
2022-10-12T20:07:15.099Z,72.95
2022-10-12T20:11:53.526Z,58.20
2022-10-12T20:16:31.177Z,68.55
2022-10-12T20:21:01.683Z,60.53
2022-10-12T20:25:09.292Z,59.70
2022-10-12T20:29:42.638Z,66.38
2022-10-12T20:33:45.670Z,72.25
2022-10-12T20:37:48.788Z,82.63
2022-10-12T20:42:25.926Z,76.75
2022-10-12T20:46:31.587Z,76.15
2022-10-12T20:51:06.651Z,74.97
2022-10-12T20:55:10.992Z,75.90
2022-10-12T20:59:45.733Z,78.65
2022-10-12T21:03:50.311Z,73.78
2022-10-12T21:08:24.149Z,76.18
2022-10-12T21:12:27.526Z,100.45
2022-10-12T21:16:31.010Z,99.03
2022-10-12T21:21:04.452Z,87.18
2022-10-12T21:25:09.947Z,75.30
2022-10-12T21:29:13.615Z,79.88
2022-10-12T21:33:47.861Z,104.88
2022-10-12T21:37:50.926Z,95.47
2022-10-12T21:41:55.394Z,97.88
2022-10-12T21:46:03.912Z,131.95
2022-10-12T21:50:09.529Z,125.68
2022-10-12T21:54:12.686Z,117.53
2022-10-12T21:58:17.154Z,120.80
2022-10-12T22:02:20.767Z,111.85
2022-10-12T22:06:25.336Z,102.55
2022-10-12T22:10:28.411Z,115.78
2022-10-12T22:14:32.894Z,127.00
2022-10-12T22:19:06.438Z,157.93
2022-10-12T22:23:09.459Z,127.70
2022-10-12T22:27:12.486Z,1098.05
2022-10-12T22:31:19.158Z,323.15
2022-10-12T22:35:50.230Z,914.65
2022-10-12T22:39:53.414Z,780.83
2022-10-12T22:43:57.402Z,1035.30
2022-10-12T22:48:33.122Z,1006.05
2022-10-12T22:52:36.236Z,995.42
2022-10-12T22:56:39.556Z,941.80
2022-10-12T23:00:43.302Z,601.95
2022-10-12T23:04:48.764Z,174.88
2022-10-12T23:09:22.074Z,361.75
2022-10-12T23:13:25.136Z,139.75
2022-10-12T23:17:28.177Z,237.75
2022-10-12T23:22:06.252Z,612.33
2022-10-12T23:26:11.186Z,172.70
2022-10-12T23:30:14.590Z,892.92
2022-10-12T23:34:51.342Z,262.45
2022-10-12T23:38:56.045Z,275.33
2022-10-12T23:43:30.440Z,1046.93
2022-10-12T23:47:33.696Z,1154.50
2022-10-12T23:51:36.898Z,1087.07
2022-10-12T23:56:12.497Z,670.47
